createdAt,value
2018-04-06T00:01:43.138Z,97393.13
2018-04-06T00:04:09.215Z,97390.89
2018-04-06T00:06:35.304Z,97396.38
2018-04-06T00:09:01.276Z,97400.59
2018-04-06T00:11:27.378Z,97396.53
2018-04-06T00:13:53.408Z,97403.98
2018-04-06T00:16:19.540Z,97403.74
2018-04-06T00:18:45.622Z,97395.48
2018-04-06T00:21:11.632Z,97392.48
2018-04-06T00:23:37.685Z,97394.53
2018-04-06T00:26:03.823Z,97395.55
2018-04-06T00:28:29.793Z,97401.98
2018-04-06T00:30:55.791Z,97407.48
2018-04-06T00:33:21.853Z,97409.94
2018-04-06T00:35:47.873Z,97405.88
2018-04-06T00:38:13.949Z,97401.30
2018-04-06T00:40:39.986Z,97389.23
2018-04-06T00:43:05.984Z,97397.28
2018-04-06T00:45:31.953Z,97399.44
2018-04-06T00:47:57.984Z,97411.41
2018-04-06T00:50:24.056Z,97412.72
2018-04-06T00:52:50.058Z,97408.63
2018-04-06T00:55:16.077Z,97417.58
2018-04-06T00:57:42.090Z,97422.03
2018-04-06T01:00:08.119Z,97433.33
2018-04-06T01:02:34.153Z,97431.14
2018-04-06T01:05:00.202Z,97434.67
2018-04-06T01:07:26.308Z,97432.97
2018-04-06T01:09:52.314Z,97436.21
2018-04-06T01:12:18.348Z,97430.88
2018-04-06T01:14:44.353Z,97426.66
2018-04-06T01:17:10.345Z,97427.44
2018-04-06T01:19:36.377Z,97428.91
2018-04-06T01:22:02.449Z,97435.59
2018-04-06T01:24:28.458Z,97441.13
2018-04-06T01:26:54.489Z,97440.82
2018-04-06T01:29:20.625Z,97436.12
2018-04-06T01:31:46.653Z,97423.59
2018-04-06T01:34:12.678Z,97434.77
2018-04-06T01:39:30.778Z,97435.25
2018-04-06T01:41:56.616Z,97434.11
2018-04-06T01:44:22.523Z,97445.63
2018-04-06T01:46:48.373Z,97451.98
2018-04-06T01:49:14.245Z,97457.14
2018-04-06T01:51:40.110Z,97448.00
2018-04-06T01:54:05.966Z,97454.44
2018-04-06T01:56:31.813Z,97455.83
2018-04-06T01:58:57.654Z,97462.73
2018-04-06T02:01:23.462Z,97473.23
2018-04-06T02:03:49.319Z,97465.50
2018-04-06T02:06:15.191Z,97462.70
2018-04-06T02:08:41.048Z,97462.28
2018-04-06T02:11:06.895Z,97462.87
2018-04-06T02:13:32.752Z,97479.38
2018-04-06T02:15:58.597Z,97474.09
2018-04-06T02:18:24.444Z,97468.92
2018-04-06T02:20:50.320Z,97473.20
2018-04-06T02:23:16.185Z,97467.98
2018-04-06T02:25:42.050Z,97477.78
2018-04-06T02:28:07.854Z,97488.03
2018-04-06T02:30:33.692Z,97489.03
2018-04-06T02:32:59.578Z,97495.83
2018-04-06T02:35:25.433Z,97500.70
2018-04-06T02:37:51.305Z,97483.77
2018-04-06T02:40:17.138Z,97491.70
2018-04-06T02:42:42.947Z,97494.63
2018-04-06T02:45:08.889Z,97498.58
2018-04-06T02:47:35.311Z,97500.37
2018-04-06T02:50:01.168Z,97491.88
2018-04-06T02:52:27.366Z,97487.66
2018-04-06T02:54:53.256Z,97492.30
2018-04-06T02:57:19.108Z,97488.86
2018-04-06T02:59:44.951Z,97488.14
2018-04-06T03:02:10.812Z,97482.62
2018-04-06T03:04:36.727Z,97486.02
2018-04-06T03:07:02.628Z,97470.66
2018-04-06T03:09:28.471Z,97470.17
2018-04-06T03:11:54.355Z,97457.55
2018-04-06T03:14:20.217Z,97465.27
2018-04-06T03:16:46.075Z,97465.88
2018-04-06T03:19:11.928Z,97457.55
2018-04-06T03:21:37.897Z,97440.36
2018-04-06T03:24:03.780Z,97437.63
2018-04-06T03:26:29.654Z,97453.27
2018-04-06T03:28:55.537Z,97467.38
2018-04-06T03:31:21.386Z,97470.48
2018-04-06T03:33:47.274Z,97483.63
2018-04-06T03:36:13.142Z,97487.20
2018-04-06T03:38:39.026Z,97495.69
2018-04-06T03:41:04.874Z,97497.94
2018-04-06T03:43:30.773Z,97501.66
2018-04-06T03:45:56.617Z,97505.38
2018-04-06T03:48:22.478Z,97508.05
2018-04-06T03:50:48.377Z,97495.32
2018-04-06T03:53:14.210Z,97492.01
2018-04-06T03:55:40.062Z,97484.10
2018-04-06T03:58:05.934Z,97486.63
2018-04-06T04:00:31.802Z,97480.22
2018-04-06T04:02:57.710Z,97474.22
2018-04-06T04:05:23.597Z,97475.73
2018-04-06T04:07:49.401Z,97486.41
2018-04-06T04:10:15.259Z,97489.38
2018-04-06T04:12:41.107Z,97501.01
2018-04-06T04:15:06.972Z,97502.54
2018-04-06T04:17:32.822Z,97500.12
2018-04-06T04:20:00.252Z,97502.73
2018-04-06T04:22:26.066Z,97517.81
2018-04-06T04:24:51.927Z,97514.67
2018-04-06T04:27:17.759Z,97516.03
2018-04-06T04:29:43.590Z,97515.31
2018-04-06T04:32:09.449Z,97512.45
2018-04-06T04:34:35.295Z,97521.78
2018-04-06T04:37:01.126Z,97525.63
2018-04-06T04:39:26.962Z,97516.34
2018-04-06T04:41:52.957Z,97523.53
2018-04-06T04:44:18.810Z,97531.61
2018-04-06T04:46:44.713Z,97523.08
2018-04-06T04:49:10.547Z,97528.48
2018-04-06T04:51:36.451Z,97526.70
2018-04-06T04:54:02.404Z,97528.52
2018-04-06T04:56:28.239Z,97530.72
2018-04-06T04:58:54.114Z,97526.30
2018-04-06T05:01:19.949Z,97528.17
2018-04-06T05:03:45.818Z,97529.05
2018-04-06T05:06:11.699Z,97538.38
2018-04-06T05:08:37.550Z,97539.89
2018-04-06T05:11:03.410Z,97540.16
2018-04-06T05:13:29.269Z,97551.44
2018-04-06T05:15:55.095Z,97570.30
2018-04-06T05:18:20.921Z,97564.88
2018-04-06T05:20:46.794Z,97557.20
2018-04-06T05:23:12.646Z,97556.14
2018-04-06T05:25:38.575Z,97571.16
2018-04-06T05:28:04.476Z,97576.20
2018-04-06T05:30:30.377Z,97579.94
2018-04-06T05:32:56.202Z,97574.63
2018-04-06T05:35:22.030Z,97573.17
2018-04-06T05:37:47.862Z,97573.88
2018-04-06T05:40:13.689Z,97573.92
2018-04-06T05:42:39.628Z,97574.51
2018-04-06T05:45:05.562Z,97566.83
2018-04-06T05:47:31.442Z,97575.64
2018-04-06T05:49:57.284Z,97584.75
2018-04-06T05:52:23.169Z,97587.53
2018-04-06T05:54:49.026Z,97596.65
2018-04-06T05:57:14.870Z,97599.11
2018-04-06T05:59:40.711Z,97598.97
2018-04-06T06:02:06.566Z,97597.08
2018-04-06T06:04:32.408Z,97599.90
2018-04-06T06:06:58.210Z,97605.30
2018-04-06T06:09:24.059Z,97613.75
2018-04-06T06:11:49.905Z,97611.62
2018-04-06T06:14:15.742Z,97616.23
2018-04-06T06:16:41.588Z,97625.16
2018-04-06T06:19:07.434Z,97624.08
2018-04-06T06:21:33.371Z,97621.47
2018-04-06T06:23:59.199Z,97622.34
2018-04-06T06:26:25.083Z,97626.12
2018-04-06T06:28:50.906Z,97630.35
2018-04-06T06:31:16.756Z,97628.69
2018-04-06T06:33:42.567Z,97635.92
2018-04-06T06:36:08.621Z,97624.53
2018-04-06T06:38:34.486Z,97633.87
2018-04-06T06:41:00.345Z,97632.83
2018-04-06T06:43:26.211Z,97622.66
2018-04-06T06:45:52.042Z,97623.41
2018-04-06T06:48:17.930Z,97626.72
2018-04-06T06:50:43.782Z,97620.69
2018-04-06T06:53:09.645Z,97613.53
2018-04-06T06:55:35.501Z,97612.27
2018-04-06T06:58:01.386Z,97608.61
2018-04-06T07:00:27.235Z,97615.20
2018-04-06T07:02:53.086Z,97602.89
2018-04-06T07:05:18.977Z,97599.54
2018-04-06T07:07:44.826Z,97614.77
2018-04-06T07:10:10.687Z,97609.77
2018-04-06T07:12:36.490Z,97607.56
2018-04-06T07:15:02.363Z,97617.42
2018-04-06T07:17:28.234Z,97626.62
2018-04-06T07:19:54.122Z,97611.82
2018-04-06T07:22:19.965Z,97615.20
2018-04-06T07:24:45.831Z,97620.36
2018-04-06T07:27:11.676Z,97615.04
2018-04-06T07:29:37.519Z,97603.02
2018-04-06T07:32:03.368Z,97599.31
2018-04-06T07:34:29.215Z,97597.57
2018-04-06T07:36:55.032Z,97606.69
2018-04-06T07:39:20.880Z,97598.97
2018-04-06T07:41:46.782Z,97601.14
2018-04-06T07:44:12.730Z,97613.08
2018-04-06T07:46:38.507Z,97600.42
2018-04-06T07:49:04.331Z,97597.67
2018-04-06T07:51:30.216Z,97600.91
2018-04-06T07:53:56.082Z,97601.36
2018-04-06T07:56:22.388Z,97612.84
2018-04-06T07:58:47.811Z,97613.30
2018-04-06T08:01:13.669Z,97604.05
2018-04-06T08:03:39.513Z,97599.06
2018-04-06T08:06:05.381Z,97614.87
2018-04-06T08:08:31.237Z,97614.30
2018-04-06T08:10:57.153Z,97609.77
2018-04-06T08:13:23.042Z,97611.55
2018-04-06T08:15:48.901Z,97617.78
2018-04-06T08:18:14.745Z,97602.98
2018-04-06T08:20:40.673Z,97601.97
2018-04-06T08:23:06.550Z,97600.80
2018-04-06T08:25:32.415Z,97599.12
2018-04-06T08:27:58.257Z,97595.20
2018-04-06T08:30:24.133Z,97595.67
2018-04-06T08:32:49.997Z,97601.72
2018-04-06T08:35:15.851Z,97601.38
2018-04-06T08:37:41.727Z,97598.64
2018-04-06T08:40:07.635Z,97595.73
2018-04-06T08:42:33.500Z,97596.30
2018-04-06T08:44:59.379Z,97596.61
2018-04-06T08:47:25.220Z,97591.77
2018-04-06T08:49:51.070Z,97587.20
2018-04-06T08:52:16.995Z,97592.36
2018-04-06T08:54:42.852Z,97578.71
2018-04-06T08:57:08.717Z,97584.44
2018-04-06T08:59:34.598Z,97580.35
2018-04-06T09:02:00.455Z,97582.20
2018-04-06T09:04:26.339Z,97580.91
2018-04-06T09:06:52.202Z,97583.98
2018-04-06T09:09:18.062Z,97580.88
2018-04-06T09:11:43.914Z,97582.73
2018-04-06T09:14:09.804Z,97582.05
2018-04-06T09:16:35.649Z,97580.93
2018-04-06T09:19:01.541Z,97579.04
2018-04-06T09:21:27.406Z,97569.92
2018-04-06T09:23:53.229Z,97575.78
2018-04-06T09:26:19.069Z,97576.18
2018-04-06T09:28:44.926Z,97572.36
2018-04-06T09:31:10.767Z,97574.20
2018-04-06T09:33:36.635Z,97560.13
2018-04-06T09:36:02.510Z,97558.45
2018-04-06T09:38:28.375Z,97554.89
2018-04-06T09:40:54.270Z,97547.81
2018-04-06T09:43:20.159Z,97545.17
2018-04-06T09:45:46.035Z,97544.92
2018-04-06T09:48:11.854Z,97539.16
2018-04-06T09:50:37.730Z,97541.08
2018-04-06T09:53:10.487Z,97542.67
2018-04-06T09:55:36.347Z,97538.08
2018-04-06T09:58:02.190Z,97534.91
2018-04-06T10:00:31.915Z,97534.62
2018-04-06T10:02:57.799Z,97526.34
2018-04-06T10:05:23.635Z,97520.70
2018-04-06T10:07:49.487Z,97528.17
2018-04-06T10:10:15.326Z,97520.46
2018-04-06T10:12:41.156Z,97523.49
2018-04-06T10:15:06.987Z,97520.63
2018-04-06T10:17:32.833Z,97521.30
2018-04-06T10:19:58.654Z,97514.92
2018-04-06T10:22:24.471Z,97515.20
2018-04-06T10:24:50.317Z,97516.92
2018-04-06T10:27:16.212Z,97513.38
2018-04-06T10:29:42.087Z,97512.33
2018-04-06T10:32:07.954Z,97506.11
2018-04-06T10:34:33.829Z,97507.47
2018-04-06T10:36:59.658Z,97498.68
2018-04-06T10:39:25.555Z,97496.41
2018-04-06T10:41:51.411Z,97499.29
2018-04-06T10:44:17.259Z,97497.42
2018-04-06T10:46:43.167Z,97495.21
2018-04-06T10:49:08.982Z,97483.47
2018-04-06T10:51:34.811Z,97486.92
2018-04-06T10:54:00.679Z,97489.27
2018-04-06T10:56:26.512Z,97495.42
2018-04-06T10:58:52.371Z,97480.80
2018-04-06T11:01:18.219Z,97477.15
2018-04-06T11:03:44.071Z,97480.90
2018-04-06T11:06:09.950Z,97473.61
2018-04-06T11:08:35.802Z,97480.16
2018-04-06T11:11:01.658Z,97475.25
2018-04-06T11:13:27.503Z,97475.69
2018-04-06T11:15:53.350Z,97477.30
2018-04-06T11:18:19.210Z,97469.45
2018-04-06T11:20:45.074Z,97467.51
2018-04-06T11:23:10.945Z,97465.36
2018-04-06T11:25:36.811Z,97471.58
2018-04-06T11:28:02.646Z,97462.34
2018-04-06T11:30:28.499Z,97460.31
2018-04-06T11:32:54.341Z,97460.22
2018-04-06T11:35:20.180Z,97449.09
2018-04-06T11:37:46.062Z,97453.13
2018-04-06T11:40:11.884Z,97435.09
2018-04-06T11:42:37.719Z,97439.39
2018-04-06T11:45:03.615Z,97443.66
2018-04-06T11:47:29.482Z,97435.02
2018-04-06T11:49:55.402Z,97430.42
2018-04-06T11:52:21.244Z,97426.30
2018-04-06T11:54:47.078Z,97422.36
2018-04-06T11:57:12.894Z,97417.14
2018-04-06T11:59:38.739Z,97419.55
2018-04-06T12:02:04.621Z,97415.63
2018-04-06T12:04:30.495Z,97408.58
2018-04-06T12:06:56.354Z,97403.37
2018-04-06T12:09:22.222Z,97401.92
2018-04-06T12:11:48.255Z,97397.53
2018-04-06T12:14:14.149Z,97391.89
2018-04-06T12:16:40.014Z,97386.64
2018-04-06T12:19:05.868Z,97385.93
2018-04-06T12:21:31.716Z,97375.65
2018-04-06T12:23:57.540Z,97378.59
2018-04-06T12:26:23.430Z,97373.81
2018-04-06T12:28:49.267Z,97366.70
2018-04-06T12:31:15.138Z,97371.03
2018-04-06T12:33:40.989Z,97358.75
2018-04-06T12:36:06.854Z,97352.55
2018-04-06T12:38:32.698Z,97353.88
2018-04-06T12:40:58.567Z,97349.06
2018-04-06T12:43:24.426Z,97354.09
2018-04-06T12:45:50.281Z,97341.55
2018-04-06T12:48:16.147Z,97343.41
2018-04-06T12:50:42.022Z,97338.18
2018-04-06T12:53:07.854Z,97334.61
2018-04-06T12:55:33.722Z,97331.01
2018-04-06T12:57:59.570Z,97335.69
2018-04-06T13:00:25.462Z,97334.70
2018-04-06T13:02:51.342Z,97333.45
2018-04-06T13:05:17.203Z,97333.69
2018-04-06T13:07:43.053Z,97330.63
2018-04-06T13:10:08.948Z,97328.69
2018-04-06T13:12:34.779Z,97327.70
2018-04-06T13:15:00.638Z,97329.56
2018-04-06T13:17:26.490Z,97331.45
2018-04-06T13:19:52.341Z,97327.03
2018-04-06T13:22:18.158Z,97324.27
2018-04-06T13:24:44.018Z,97316.70
2018-04-06T13:27:09.874Z,97319.39
2018-04-06T13:29:35.764Z,97316.89
2018-04-06T13:32:01.613Z,97306.45
2018-04-06T13:34:27.434Z,97291.20
2018-04-06T13:36:53.303Z,97302.37
2018-04-06T13:39:19.159Z,97310.24
2018-04-06T13:41:45.014Z,97303.91
2018-04-06T13:44:10.903Z,97295.11
2018-04-06T13:46:36.787Z,97283.48
2018-04-06T13:49:02.642Z,97286.04
2018-04-06T13:51:28.479Z,97289.53
2018-04-06T13:53:54.333Z,97279.39
2018-04-06T13:56:20.186Z,97276.27
2018-04-06T13:58:46.059Z,97264.69
2018-04-06T14:01:11.978Z,97261.33
2018-04-06T14:03:37.808Z,97263.73
2018-04-06T14:06:03.677Z,97262.69
2018-04-06T14:08:29.514Z,97257.52
2018-04-06T14:10:55.400Z,97257.26
2018-04-06T14:13:21.362Z,97253.16
2018-04-06T14:15:47.278Z,97253.21
2018-04-06T14:18:13.450Z,97257.67
2018-04-06T14:20:39.481Z,97252.09
2018-04-06T14:23:05.388Z,97246.91
2018-04-06T14:25:31.282Z,97252.88
2018-04-06T14:27:57.202Z,97241.55
2018-04-06T14:30:23.106Z,97238.97
2018-04-06T14:32:49.013Z,97246.05
2018-04-06T14:35:14.967Z,97236.23
2018-04-06T14:37:40.909Z,97237.36
2018-04-06T14:40:06.748Z,97245.78
2018-04-06T14:42:32.639Z,97246.79
2018-04-06T14:44:58.516Z,97237.02
2018-04-06T14:47:24.407Z,97240.59
2018-04-06T14:49:50.295Z,97236.28
2018-04-06T14:52:16.143Z,97232.00
2018-04-06T14:54:41.979Z,97230.20
2018-04-06T14:57:07.861Z,97228.08
2018-04-06T14:59:33.730Z,97230.79
2018-04-06T15:01:59.596Z,97228.52
2018-04-06T15:04:25.479Z,97221.94
2018-04-06T15:06:51.394Z,97217.09
2018-04-06T15:09:17.260Z,97220.75
2018-04-06T15:11:43.102Z,97223.70
2018-04-06T15:14:08.985Z,97212.66
2018-04-06T15:16:34.856Z,97219.37
2018-04-06T15:19:00.746Z,97219.09
2018-04-06T15:21:26.684Z,97217.06
2018-04-06T15:23:52.543Z,97213.86
2018-04-06T15:26:18.428Z,97211.68
2018-04-06T15:28:44.334Z,97209.75
2018-04-06T15:31:10.185Z,97214.54
2018-04-06T15:33:36.105Z,97212.22
2018-04-06T15:36:01.981Z,97203.13
2018-04-06T15:38:27.844Z,97203.02
2018-04-06T15:40:53.710Z,97206.28
2018-04-06T15:43:19.625Z,97209.78
2018-04-06T15:45:45.506Z,97209.05
2018-04-06T15:48:11.397Z,97201.52
2018-04-06T15:50:37.256Z,97201.64
2018-04-06T15:53:03.131Z,97199.30
2018-04-06T15:55:29.013Z,97202.91
2018-04-06T15:57:54.883Z,97204.80
2018-04-06T16:00:20.808Z,97198.92
2018-04-06T16:02:46.690Z,97201.85
2018-04-06T16:05:12.595Z,97207.62
2018-04-06T16:07:38.493Z,97202.68
2018-04-06T16:10:04.841Z,97202.97
2018-04-06T16:12:30.741Z,97201.03
2018-04-06T16:14:56.648Z,97191.02
2018-04-06T16:17:22.536Z,97194.90
2018-04-06T16:19:48.432Z,97196.34
2018-04-06T16:22:14.320Z,97188.80
2018-04-06T16:24:40.216Z,97191.14
2018-04-06T16:27:06.122Z,97188.29
2018-04-06T16:29:32.021Z,97183.05
2018-04-06T16:31:57.896Z,97184.98
2018-04-06T16:34:23.774Z,97184.21
2018-04-06T16:36:49.662Z,97193.72
2018-04-06T16:39:15.517Z,97188.45
2018-04-06T16:41:41.385Z,97183.09
2018-04-06T16:44:07.278Z,97189.84
2018-04-06T16:46:33.195Z,97190.58
2018-04-06T16:48:59.090Z,97189.75
2018-04-06T16:51:24.954Z,97184.90
2018-04-06T16:53:50.828Z,97196.08
2018-04-06T16:56:16.699Z,97190.00
2018-04-06T16:58:42.673Z,97188.40
2018-04-06T17:01:08.524Z,97188.72
2018-04-06T17:03:34.471Z,97196.14
2018-04-06T17:06:00.311Z,97185.88
2018-04-06T17:08:26.151Z,97187.45
2018-04-06T17:10:52.032Z,97189.23
2018-04-06T17:13:17.875Z,97192.66
2018-04-06T17:15:43.827Z,97191.32
2018-04-06T17:18:09.772Z,97188.53
2018-04-06T17:20:35.670Z,97192.09
2018-04-06T17:23:01.548Z,97192.48
2018-04-06T17:25:28.270Z,97192.55
2018-04-06T17:27:54.098Z,97189.20
2018-04-06T17:30:19.978Z,97197.13
2018-04-06T17:32:45.858Z,97201.88
2018-04-06T17:35:11.743Z,97191.10
2018-04-06T17:37:37.646Z,97196.16
2018-04-06T17:40:03.970Z,97189.05
2018-04-06T17:42:29.854Z,97194.58
2018-04-06T17:44:55.691Z,97197.55
2018-04-06T17:47:21.582Z,97203.73
2018-04-06T17:49:47.432Z,97200.08
2018-04-06T17:52:13.275Z,97199.45
2018-04-06T17:54:39.132Z,97200.70
2018-04-06T17:57:04.983Z,97203.23
2018-04-06T17:59:30.861Z,97206.50
2018-04-06T18:01:56.730Z,97201.09
2018-04-06T18:04:22.651Z,97206.36
2018-04-06T18:06:48.503Z,97204.97
2018-04-06T18:09:14.376Z,97211.97
2018-04-06T18:11:40.223Z,97211.43
2018-04-06T18:14:06.294Z,97214.34
2018-04-06T18:16:32.206Z,97217.67
2018-04-06T18:18:58.150Z,97220.70
2018-04-06T18:21:24.098Z,97222.86
2018-04-06T18:23:50.103Z,97218.97
2018-04-06T18:26:16.026Z,97220.59
2018-04-06T18:28:41.926Z,97225.86
2018-04-06T18:31:07.869Z,97220.23
2018-04-06T18:33:33.760Z,97217.51
2018-04-06T18:35:59.648Z,97218.41
2018-04-06T18:38:25.526Z,97215.00
2018-04-06T18:40:51.395Z,97226.76
2018-04-06T18:43:17.254Z,97223.15
2018-04-06T18:45:43.164Z,97218.84
2018-04-06T18:48:09.042Z,97229.58
2018-04-06T18:50:34.955Z,97232.45
2018-04-06T18:53:00.830Z,97230.64
2018-04-06T18:55:26.713Z,97226.76
2018-04-06T18:57:52.605Z,97229.52
2018-04-06T19:00:18.577Z,97232.27
2018-04-06T19:02:44.513Z,97233.20
2018-04-06T19:05:10.434Z,97228.94
2018-04-06T19:07:36.362Z,97229.47
2018-04-06T19:10:03.015Z,97227.92
2018-04-06T19:12:28.903Z,97232.36
2018-04-06T19:14:54.798Z,97222.17
2018-04-06T19:17:20.669Z,97229.70
2018-04-06T19:19:46.716Z,97222.20
2018-04-06T19:22:12.981Z,97227.95
2018-04-06T19:24:38.964Z,97222.89
2018-04-06T19:27:04.833Z,97214.06
2018-04-06T19:29:30.714Z,97217.03
2018-04-06T19:31:56.596Z,97204.84
2018-04-06T19:34:22.496Z,97203.95
2018-04-06T19:36:48.382Z,97207.14
2018-04-06T19:39:14.271Z,97201.48
2018-04-06T19:41:40.174Z,97200.16
2018-04-06T19:44:06.112Z,97193.15
2018-04-06T19:46:32.000Z,97191.73
2018-04-06T19:48:58.448Z,97191.09
2018-04-06T19:51:24.386Z,97194.80
2018-04-06T19:53:50.264Z,97191.44
2018-04-06T19:56:16.150Z,97186.80
2018-04-06T19:58:42.049Z,97178.70
2018-04-06T20:01:07.898Z,97188.95
2018-04-06T20:03:33.751Z,97193.00
2018-04-06T20:05:59.682Z,97189.23
2018-04-06T20:08:25.584Z,97187.34
2018-04-06T20:10:51.463Z,97186.61
2018-04-06T20:13:17.336Z,97185.79
2018-04-06T20:15:43.205Z,97188.66
2018-04-06T20:18:09.050Z,97184.27
2018-04-06T20:20:34.925Z,97181.89
2018-04-06T20:23:00.871Z,97176.75
2018-04-06T20:25:26.785Z,97175.83
2018-04-06T20:27:52.742Z,97168.56
2018-04-06T20:30:18.682Z,97164.48
2018-04-06T20:32:44.634Z,97163.39
2018-04-06T20:35:10.546Z,97170.81
2018-04-06T20:37:36.584Z,97161.91
2018-04-06T20:40:03.102Z,97160.80
2018-04-06T20:42:28.949Z,97162.27
2018-04-06T20:44:54.977Z,97157.20
2018-04-06T20:47:20.839Z,97157.72
2018-04-06T20:49:46.713Z,97159.08
2018-04-06T20:52:12.604Z,97151.52
2018-04-06T20:54:38.490Z,97152.25
2018-04-06T20:57:04.569Z,97151.62
2018-04-06T20:59:30.461Z,97145.33
2018-04-06T21:01:56.354Z,97141.90
2018-04-06T21:04:22.270Z,97134.48
2018-04-06T21:06:48.168Z,97136.30
2018-04-06T21:09:14.179Z,97137.77
2018-04-06T21:11:40.109Z,97136.31
2018-04-06T21:14:06.022Z,97137.42
2018-04-06T21:16:31.938Z,97135.00
2018-04-06T21:18:57.829Z,97139.72
2018-04-06T21:21:23.698Z,97135.08
2018-04-06T21:23:49.586Z,97132.99
2018-04-06T21:26:15.467Z,97128.30
2018-04-06T21:28:41.351Z,97130.50
2018-04-06T21:31:07.204Z,97122.09
2018-04-06T21:33:33.092Z,97119.23
2018-04-06T21:35:59.018Z,97127.37
2018-04-06T21:38:24.926Z,97131.96
2018-04-06T21:40:50.798Z,97131.02
2018-04-06T21:43:16.852Z,97128.92
2018-04-06T21:45:42.744Z,97131.77
2018-04-06T21:48:08.615Z,97125.59
2018-04-06T21:50:34.510Z,97127.80
2018-04-06T21:53:00.366Z,97128.11
2018-04-06T21:55:26.298Z,97129.89
2018-04-06T21:57:52.270Z,97124.80
2018-04-06T22:00:18.109Z,97126.84
2018-04-06T22:02:44.071Z,97125.95
2018-04-06T22:05:09.932Z,97131.86
2018-04-06T22:07:35.814Z,97129.38
2018-04-06T22:10:01.706Z,97124.06
2018-04-06T22:12:27.591Z,97120.41
2018-04-06T22:14:53.466Z,97131.30
2018-04-06T22:17:19.357Z,97134.35
2018-04-06T22:19:45.233Z,97125.25
2018-04-06T22:22:11.111Z,97128.86
2018-04-06T22:24:36.988Z,97117.80
2018-04-06T22:27:02.953Z,97117.66
2018-04-06T22:29:28.824Z,97122.78
2018-04-06T22:31:54.769Z,97118.41
2018-04-06T22:34:20.666Z,97114.80
2018-04-06T22:36:46.525Z,97113.04
2018-04-06T22:39:12.513Z,97114.05
2018-04-06T22:41:38.359Z,97111.16
2018-04-06T22:44:04.230Z,97103.17
2018-04-06T22:46:30.128Z,97106.59
2018-04-06T22:48:56.041Z,97105.30
2018-04-06T22:51:21.915Z,97102.42
2018-04-06T22:53:47.806Z,97100.17
2018-04-06T22:56:13.675Z,97097.80
2018-04-06T22:58:39.633Z,97100.55
2018-04-06T23:01:05.499Z,97101.87
2018-04-06T23:03:31.362Z,97094.55
2018-04-06T23:05:57.223Z,97100.66
2018-04-06T23:08:23.089Z,97089.66
2018-04-06T23:10:49.003Z,97093.84
2018-04-06T23:13:14.831Z,97089.27
2018-04-06T23:15:40.691Z,97084.41
2018-04-06T23:18:06.565Z,97080.42
2018-04-06T23:20:32.428Z,97079.24
2018-04-06T23:22:58.307Z,97078.73
2018-04-06T23:25:24.198Z,97072.47
2018-04-06T23:27:50.110Z,97076.37
2018-04-06T23:30:15.949Z,97068.48
2018-04-06T23:32:41.902Z,97067.27
2018-04-06T23:35:07.746Z,97064.80
2018-04-06T23:37:33.619Z,97069.16
2018-04-06T23:39:59.459Z,97066.94
2018-04-06T23:42:25.398Z,97067.47
2018-04-06T23:44:51.283Z,97066.95
2018-04-06T23:47:17.145Z,97066.95
2018-04-06T23:49:43.098Z,97058.16
2018-04-06T23:52:09.015Z,97052.72
2018-04-06T23:54:34.887Z,97055.75
2018-04-06T23:57:00.753Z,97053.07
2018-04-06T23:59:26.576Z,97058.37
